East Pembroke, Massachusetts
Current Conditions -  °F | °C
As of 7:35 AM on Sunday 21 Dec 2014 (Local Time) from KGHG Reporting Station
Overcast Overcast  
Wind Chill: 35°   Ceiling: 1800
Heat Index: 39°   Visibility: 10mi
Dew Point: 34°   Wind: 6mph
Humidity: 81%   Direction: 50°NE
Pressure: 30.31"   Gusts: NA
Location:  42.0662°N, 70.8014°W
Report Text: KGHG 211235Z AUTO 05005KT 10SM BKN018 OVC026 04/01 A3031 RMK AO2
Loading
Personal Weather Stations






























Interactive Weather Map New forecast layout! Learn more

10-Day Weather Forecast

Advertisements
Track Severe Weather on mobile